Terminal Aerodrome Forecast
Issued by NWS

Home | Current Version | Previous Version | Text Only | Print | Product List | Glossary On
Versions: 1 2 3 4 5 6 7 8 9 10 11 12 13 14 15 16 17 18 19 20 21 22 23 24 25
000
FTUS46 KMTR 222007 AAA
TAFSTS
TAF AMD
KSTS 222007Z 2220/2318 VRB04KT P6SM BKN200
      TEMPO 2220/2221 6SM BR SCT005 BKN200
     FM230300 00000KT P6SM OVC200
     FM230700 VRB02KT 1/2SM FG OVC002=

USA.gov is the U.S. government's official web portal to all federal, state and local government web resources and services.